Nearby METAR Reports

 

KFYM - Fayetteville, Tennessee, USA
Distance from station: NNW 3mi, 5km
Updated: Tue, 21-May-2019 5:15am CDT
Clear
Clear
 Wind from SE
Wind: SE 6 mph , 9 km/h
Temperature: 59°F , 15°C
Dew Point: 55°F , 13°C
Humidity: 88%
Barometer: 29.93 inHg , 1013.5 hPa
Clouds: Clear
Visibility: 10 miles , 16 km
2019/05/21 10:15 KFYM 211015Z AUTO 13005KT 10SM CLR 15/13 A2993 RMK A01
KMDQ - Huntsville/Madis, Alabama, USA
Distance from station: S 11mi, 18km
Updated: Tue, 21-May-2019 5:15am CDT

 Wind from calm
Wind: Calm
Temperature: 59°F , 15°C
Dew Point: 57°F , 14°C
Humidity: 94%
Barometer: 29.94 inHg , 1013.9 hPa
Visibility: 10 miles , 16 km
2019/05/21 10:15 KMDQ 211015Z AUTO 00000KT 10SM 15/14 A2994 RMK A02 T01470141
KHUA - Redstone Arsenal, Alabama, USA
Distance from station: SSW 25mi, 40km
Updated: Tue, 21-May-2019 4:58am CDT
Clear
Clear
 Wind from calm
Wind: Calm
Temperature: 63°F , 17°C
Dew Point: 61°F , 16°C
Humidity: 94%
Barometer: 29.92 inHg , 1013.2 hPa
Clouds: Clear
Visibility: 10 miles , 16 km
2019/05/21 09:58 KHUA 210958Z AUTO 00000KT 10SM CLR 17/16 A2992 RMK AO2 SLP127 T01700156
 
KGZS - Pulaski, Tennessee, USA
Distance from station: WNW 29mi, 47km
Updated: Tue, 21-May-2019 5:15am CDT
Clear
Clear
 Wind from calm
Wind: Calm
Temperature: 57°F , 14°C
Dew Point: 57°F , 14°C
Humidity: 100%
Barometer: 29.92 inHg , 1013.2 hPa
Clouds: Clear
Visibility: 7 miles , 11 km
2019/05/21 10:15 KGZS 211015Z AUTO 00000KT 7SM CLR 14/14 A2992 RMK A01
KBGF - Winchester, Tennessee, USA
Distance from station: ENE 30mi, 48km
Updated: Tue, 21-May-2019 5:15am CDT
Clear
Clear
 Wind from SE
Wind: SE 5 mph , 7 km/h
Temperature: 64°F , 18°C
Dew Point: 54°F , 12°C
Humidity: 68%
Barometer: 29.94 inHg , 1013.9 hPa
Clouds: Clear
Visibility: 10 miles , 16 km
2019/05/21 10:15 KBGF 211015Z AUTO 13004KT 10SM CLR 18/12 A2994 RMK A01
KTHA - Tullahoma, Tennessee, USA
Distance from station: NE 30mi, 48km
Updated: Tue, 21-May-2019 5:15am CDT
Clear
Clear
 Wind from calm
Wind: Calm
Temperature: 55°F , 13°C
Dew Point: 54°F , 12°C
Humidity: 94%
Barometer: 29.94 inHg , 1013.9 hPa
Clouds: Clear
Visibility: 10 miles , 16 km
2019/05/21 10:15 KTHA 211015Z AUTO 00000KT 10SM CLR 13/12 A2994 RMK A01
 
KDCU - Decatur, Alabama, USA
Distance from station: SW 34mi, 55km
Updated: Tue, 21-May-2019 4:53am CDT
Clear
Clear
 
Temperature: 66°F , 19°C
Dew Point: 64°F , 18°C
Humidity: 94%
Barometer: 29.92 inHg , 1013.2 hPa
Clouds: Clear
Visibility: 9 miles , 14 km
2019/05/21 09:53 KDCU 210953Z AUTO 9SM CLR 19/18 A2992 RMK AO2 SLP126 T01890178
KSYI - Shelbyville, Tennessee, USA
Distance from station: N 38mi, 61km
Updated: Tue, 21-May-2019 5:15am CDT
Clear
Clear
 Wind from calm
Wind: Calm
Temperature: 59°F , 15°C
Dew Point: 55°F , 13°C
Humidity: 88%
Barometer: 29.93 inHg , 1013.5 hPa
Clouds: Clear
Visibility: 10 miles , 16 km
2019/05/21 10:15 KSYI 211015Z AUTO 00000KT 10SM CLR 15/13 A2993 RMK A01
K4A6 - Scottsboro, Alabama, USA
Distance from station: SE 39mi, 63km
Updated: Tue, 21-May-2019 5:15am CDT
Clear
Clear
 Wind from calm
Wind: Calm
Temperature: 59°F , 15°C
Dew Point: 59°F , 15°C
Humidity: 100%
Barometer: 29.96 inHg , 1014.6 hPa
Clouds: Clear
Visibility: 10 miles , 16 km
2019/05/21 10:15 K4A6 211015Z AUTO 00000KT 10SM CLR 15/15 A2996 RMK AO2